Time;durP1;ratioP1;P1;durP2;ratioP2;P2;SDS_P1;SDS_P2;PMS_P1;PMS_P2;Temp;Humidity;BMP_temperature;BMP_pressure;BME280_temperature;BME280_humidity;BME280_pressure;Samples;Min_cycle;Max_cycle;Signal;HPM_P1;HPM_P2
2021/05/05 00:00:21;;;;;;;10.05;5.55;;;3.20;99.90;;;;;;4961085;28;20050;-93
2021/05/05 00:02:47;;;;;;;6.53;4.25;;;3.20;99.90;;;;;;4960246;28;20202;-94
2021/05/05 00:05:14;;;;;;;8.85;5.90;;;3.20;99.90;;;;;;4967636;28;20172;-93
2021/05/05 00:07:42;;;;;;;6.40;4.78;;;3.10;99.90;;;;;;4985265;28;20027;-93
2021/05/05 00:10:12;;;;;;;7.60;5.10;;;3.20;99.90;;;;;;4967329;28;20035;-92
2021/05/05 00:12:38;;;;;;;7.90;5.95;;;3.10;99.90;;;;;;4967037;28;20041;-92
2021/05/05 00:15:12;;;;;;;8.63;5.03;;;3.20;99.90;;;;;;4967726;28;20030;-94
2021/05/05 00:17:43;;;;;;;11.30;5.90;;;3.20;99.90;;;;;;4968110;28;20486;-94
2021/05/05 00:20:09;;;;;;;8.10;6.15;;;3.20;99.90;;;;;;4961191;28;20038;-93
2021/05/05 00:22:35;;;;;;;10.10;6.53;;;3.20;99.90;;;;;;4959567;28;20961;-91
2021/05/05 00:25:02;;;;;;;9.57;5.60;;;3.20;99.90;;;;;;4960620;28;20054;-93
2021/05/05 00:27:27;;;;;;;8.20;5.55;;;3.20;99.90;;;;;;4960278;28;20034;-93
2021/05/05 00:29:58;;;;;;;10.90;6.55;;;3.20;99.90;;;;;;4977476;28;20027;-93
2021/05/05 00:32:31;;;;;;;9.43;6.37;;;3.20;99.90;;;;;;4960615;28;20288;-93
2021/05/05 00:34:57;;;;;;;8.40;4.82;;;3.20;99.90;;;;;;4965854;28;20295;-92
2021/05/05 00:37:26;;;;;;;8.43;5.30;;;3.20;99.90;;;;;;4968367;28;20035;-93
2021/05/05 00:39:53;;;;;;;8.85;4.63;;;3.30;99.90;;;;;;4967968;28;20498;-92
2021/05/05 00:42:24;;;;;;;14.13;4.50;;;3.20;99.90;;;;;;4986246;28;20034;-92
2021/05/05 00:45:01;;;;;;;8.20;5.30;;;3.30;99.90;;;;;;4970301;28;20554;-93
2021/05/05 00:47:27;;;;;;;6.38;4.97;;;3.30;99.90;;;;;;4972765;28;20033;-93
2021/05/05 00:49:59;;;;;;;8.95;5.15;;;3.30;99.90;;;;;;4964077;28;20060;-93
2021/05/05 00:52:28;;;;;;;9.05;6.68;;;3.30;99.90;;;;;;4959828;28;20019;-92
2021/05/05 00:54:57;;;;;;;12.90;7.38;;;3.30;99.90;;;;;;4977394;28;20102;-94
2021/05/05 00:57:27;;;;;;;10.52;7.00;;;3.30;99.90;;;;;;4960673;28;20027;-94
2021/05/05 00:59:53;;;;;;;13.65;7.20;;;3.30;99.90;;;;;;4960474;28;20027;-95
2021/05/05 01:02:20;;;;;;;9.70;7.20;;;3.30;99.90;;;;;;4960121;28;20383;-93
2021/05/05 01:04:46;;;;;;;9.57;6.10;;;3.30;99.90;;;;;;4960670;28;20041;-94
2021/05/05 01:07:18;;;;;;;10.23;7.25;;;3.30;99.90;;;;;;4960853;28;20022;-93
2021/05/05 01:09:50;;;;;;;11.68;7.25;;;3.30;99.90;;;;;;4960689;28;20041;-94
2021/05/05 01:12:19;;;;;;;10.77;7.13;;;3.30;99.90;;;;;;4961867;28;20034;-94
2021/05/05 01:14:45;;;;;;;11.65;7.40;;;3.30;99.90;;;;;;4963661;28;20050;-93
2021/05/05 01:17:11;;;;;;;10.85;7.40;;;3.30;99.90;;;;;;4962997;28;20019;-93
2021/05/05 01:19:40;;;;;;;10.32;6.78;;;3.20;99.90;;;;;;4966261;28;20402;-93
2021/05/05 01:22:11;;;;;;;13.93;7.32;;;3.20;99.90;;;;;;4968282;28;20027;-94
2021/05/05 01:24:40;;;;;;;;;;;3.20;99.90;;;;;;4968608;28;20038;-93
2021/05/05 01:27:07;;;;;;;8.70;5.22;;;3.20;99.90;;;;;;4966382;28;19906;-92
2021/05/05 01:29:35;;;;;;;11.18;6.00;;;3.20;99.90;;;;;;4966827;28;20087;-95
2021/05/05 01:32:01;;;;;;;8.75;6.57;;;3.20;99.90;;;;;;4965454;28;20071;-93
2021/05/05 01:34:39;;;;;;;10.98;6.25;;;3.10;99.90;;;;;;4963035;28;20027;-94
2021/05/05 01:37:06;;;;;;;8.60;6.18;;;3.10;99.90;;;;;;4963143;28;20058;-95
2021/05/05 01:39:34;;;;;;;11.20;7.22;;;3.10;99.90;;;;;;4963631;28;20019;-94
2021/05/05 01:42:07;;;;;;;9.73;6.18;;;3.00;99.90;;;;;;4964909;28;20030;-93
2021/05/05 01:44:39;;;;;;;11.02;7.07;;;3.00;99.90;;;;;;4966900;28;20041;-93
2021/05/05 01:47:09;;;;;;;8.98;6.35;;;3.00;99.90;;;;;;4977393;28;20030;-94
2021/05/05 01:49:42;;;;;;;10.82;6.82;;;3.00;99.90;;;;;;4975251;28;20058;-94
2021/05/05 01:52:11;;;;;;;11.10;6.45;;;3.00;99.90;;;;;;4968985;28;20098;-93
2021/05/05 01:54:38;;;;;;;21.42;7.65;;;3.00;99.90;;;;;;4993476;28;20022;-92
2021/05/05 01:57:43;;;;;;;11.70;5.95;;;3.00;99.90;;;;;;4975302;28;20038;-94
2021/05/05 02:00:15;;;;;;;8.75;5.82;;;3.00;99.90;;;;;;4953297;29;20069;-92
2021/05/05 02:02:41;;;;;;;10.88;6.38;;;2.90;99.90;;;;;;4951613;29;20058;-91
2021/05/05 02:05:16;;;;;;;9.23;5.80;;;2.90;99.90;;;;;;4954658;29;20032;-92
2021/05/05 02:07:44;;;;;;;8.27;5.75;;;2.90;99.90;;;;;;4949379;29;20183;-93
2021/05/05 02:10:15;;;;;;;11.63;5.10;;;2.90;99.90;;;;;;4949644;29;20035;-93
2021/05/05 02:12:42;;;;;;;10.25;5.47;;;2.90;99.90;;;;;;4930763;29;20050;-92
2021/05/05 02:15:23;;;;;;;7.97;4.68;;;2.90;99.90;;;;;;4942729;29;20027;-94
2021/05/05 02:17:51;;;;;;;12.23;6.00;;;2.90;99.90;;;;;;4941820;29;20039;-93
2021/05/05 02:20:20;;;;;;;14.65;6.97;;;2.90;99.90;;;;;;4941408;29;20056;-94
2021/05/05 02:22:52;;;;;;;10.93;5.65;;;2.90;99.90;;;;;;4940334;29;20042;-95
2021/05/05 02:25:18;;;;;;;8.73;5.85;;;2.90;99.90;;;;;;4940887;29;20067;-94
2021/05/05 02:27:50;;;;;;;8.75;6.07;;;2.90;99.90;;;;;;4954247;28;20034;-95
2021/05/05 02:30:17;;;;;;;11.82;6.18;;;3.00;99.90;;;;;;4962478;28;20086;-93
2021/05/05 02:32:49;;;;;;;9.23;6.38;;;2.90;99.90;;;;;;4962606;28;20026;-94
2021/05/05 02:35:16;;;;;;;11.30;7.15;;;2.90;99.90;;;;;;4954881;28;20030;-94
2021/05/05 02:37:45;;;;;;;11.60;6.82;;;2.80;99.90;;;;;;4961554;28;20046;-94
2021/05/05 02:40:18;;;;;;;8.18;5.47;;;2.90;99.90;;;;;;4961370;28;20117;-95
2021/05/05 02:42:44;;;;;;;12.00;6.53;;;2.90;99.90;;;;;;4961011;28;20031;-95
2021/05/05 02:45:25;;;;;;;11.65;6.75;;;2.80;99.90;;;;;;4960977;28;20031;-94
2021/05/05 02:47:52;;;;;;;10.57;6.22;;;2.80;99.90;;;;;;4962062;28;20091;-95
2021/05/05 02:50:18;;;;;;;11.43;6.32;;;2.80;99.90;;;;;;4961402;28;20027;-96
2021/05/05 02:52:43;;;;;;;11.63;6.88;;;2.80;99.90;;;;;;4961316;28;20041;-95
2021/05/05 02:55:15;;;;;;;12.27;6.25;;;2.80;99.90;;;;;;4960011;28;20385;-94
2021/05/05 02:57:44;;;;;;;12.07;6.53;;;2.80;99.90;;;;;;4960249;28;20041;-93
2021/05/05 03:00:18;;;;;;;9.32;5.55;;;2.80;99.90;;;;;;4960476;28;20117;-93
2021/05/05 03:02:43;;;;;;;10.38;5.82;;;2.70;99.90;;;;;;4961125;28;20053;-94
2021/05/05 03:05:15;;;;;;;10.45;6.22;;;2.70;99.90;;;;;;4973288;28;20031;-95
2021/05/05 03:07:41;;;;;;;9.30;5.97;;;2.70;99.90;;;;;;4973204;28;20130;-94
2021/05/05 03:10:08;;;;;;;8.82;6.50;;;2.70;99.90;;;;;;4971074;28;20042;-95
2021/05/05 03:12:45;;;;;;;13.55;6.63;;;2.70;99.90;;;;;;4971632;28;20027;-96
2021/05/05 03:15:14;;;;;;;9.23;5.90;;;2.70;99.90;;;;;;4972355;28;20034;-95
2021/05/05 03:17:42;;;;;;;10.02;7.10;;;2.70;99.90;;;;;;4975224;28;20030;-94
2021/05/05 03:20:14;;;;;;;11.35;7.43;;;2.60;99.90;;;;;;4973452;28;20031;-95
2021/05/05 03:22:42;;;;;;;10.05;7.00;;;2.60;99.90;;;;;;4971741;28;20033;-94
2021/05/05 03:25:09;;;;;;;12.25;6.95;;;2.60;99.90;;;;;;4971169;28;20051;-94
2021/05/05 03:27:36;;;;;;;10.88;6.43;;;2.60;99.90;;;;;;4970215;28;20026;-94
2021/05/05 03:30:06;;;;;;;14.25;6.88;;;2.60;99.90;;;;;;4970312;28;20027;-94
2021/05/05 03:32:32;;;;;;;16.00;7.10;;;2.60;99.90;;;;;;4970180;28;20057;-94
2021/05/05 03:34:58;;;;;;;13.48;8.15;;;2.50;99.90;;;;;;4984301;28;20035;-94
2021/05/05 03:37:27;;;;;;;13.70;7.55;;;2.50;99.90;;;;;;4967604;28;20034;-94
2021/05/05 03:39:56;;;;;;;12.90;7.93;;;2.50;99.90;;;;;;4966164;28;20102;-93
2021/05/05 03:42:27;;;;;;;11.73;7.57;;;2.50;99.90;;;;;;4965550;28;20506;-93
2021/05/05 03:44:56;;;;;;;10.60;6.95;;;2.40;99.90;;;;;;4965352;28;20035;-92
2021/05/05 03:47:22;;;;;;;13.98;8.68;;;2.40;99.90;;;;;;4964420;28;20042;-94
2021/05/05 03:49:48;;;;;;;16.20;7.63;;;2.40;99.90;;;;;;4968586;28;20037;-94
2021/05/05 03:52:14;;;;;;;13.38;8.07;;;2.40;99.90;;;;;;4972342;28;20026;-95
2021/05/05 03:54:40;;;;;;;16.23;8.20;;;2.40;99.90;;;;;;4973786;28;20414;-94
2021/05/05 03:57:08;;;;;;;13.27;8.38;;;2.30;99.90;;;;;;4973487;28;20035;-94
2021/05/05 03:59:39;;;;;;;15.05;7.43;;;2.30;99.90;;;;;;4975575;28;20055;-95
2021/05/05 04:02:09;;;;;;;15.35;8.23;;;2.30;99.90;;;;;;4980707;28;20054;-93
2021/05/05 04:04:38;;;;;;;13.35;7.90;;;2.30;99.90;;;;;;4973967;28;20074;-93
2021/05/05 04:07:06;;;;;;;14.43;7.97;;;2.30;99.90;;;;;;4963876;28;20034;-94
2021/05/05 04:09:35;;;;;;;14.10;8.77;;;2.30;99.90;;;;;;4962874;28;20457;-93
2021/05/05 04:12:03;;;;;;;15.25;8.23;;;2.30;99.90;;;;;;4961705;28;20534;-93
2021/05/05 04:14:28;;;;;;;12.52;7.28;;;2.30;99.90;;;;;;4979989;28;20035;-93
2021/05/05 04:16:59;;;;;;;15.88;8.40;;;2.30;99.90;;;;;;4962205;28;20046;-95
2021/05/05 04:19:25;;;;;;;16.42;8.07;;;2.30;99.90;;;;;;4961480;28;20027;-92
2021/05/05 04:21:51;;;;;;;12.75;7.38;;;2.20;99.90;;;;;;4964004;28;20410;-93
2021/05/05 06:49:52;;;;;;;10.02;4.32;;;3.20;99.90;;;;;;5135749;27;20408;-93
2021/05/05 06:52:18;;;;;;;9.25;3.75;;;3.60;99.90;;;;;;5112433;28;20473;-94
2021/05/05 06:54:44;;;;;;;7.07;3.72;;;3.70;99.90;;;;;;5101458;28;20047;-93
2021/05/05 06:57:09;;;;;;;10.60;3.00;;;3.70;99.90;;;;;;5116308;28;20032;-93
2021/05/05 06:59:35;;;;;;;7.03;2.42;;;3.80;99.90;;;;;;5105892;28;20030;-93
2021/05/05 07:02:01;;;;;;;7.50;2.20;;;3.80;99.90;;;;;;5103740;28;20031;-93
2021/05/05 07:04:27;;;;;;;8.60;3.47;;;3.90;99.90;;;;;;5121580;28;20050;-91
2021/05/05 07:06:54;;;;;;;12.50;3.10;;;4.00;99.90;;;;;;5110802;28;20031;-94
2021/05/05 07:11:54;;;;;;;3.95;2.22;;;4.10;99.90;;;;;;5098886;28;20020;-96
2021/05/05 07:14:21;;;;;;;7.30;2.25;;;4.20;99.90;;;;;;5117669;28;20015;-95
2021/05/05 07:19:33;;;;;;;8.73;2.13;;;4.30;99.90;;;;;;5111255;28;20055;-95
2021/05/05 07:22:55;;;;;;;4.97;1.88;;;4.40;99.90;;;;;;5119129;28;20039;-95
2021/05/05 07:28:11;;;;;;;4.90;1.70;;;4.50;99.90;;;;;;5702648;23;21220;-94
2021/05/05 07:30:37;;;;;;;9.50;1.80;;;4.60;99.90;;;;;;5098445;28;20041;-94
2021/05/05 07:33:03;;;;;;;6.50;1.65;;;4.70;99.90;;;;;;5075233;28;20090;-94
2021/05/05 07:35:30;;;;;;;8.43;1.85;;;4.80;99.90;;;;;;5064367;28;20029;-95
2021/05/05 07:41:35;;;;;;;7.55;2.22;;;4.90;99.90;;;;;;5076254;28;20078;-93
2021/05/05 07:46:27;;;;;;;6.00;1.58;;;5.00;99.90;;;;;;5077960;28;20021;-95
2021/05/05 07:48:58;;;;;;;5.95;1.67;;;5.10;99.90;;;;;;5058739;28;20059;-94
2021/05/05 07:51:32;;;;;;;5.75;2.08;;;5.20;99.90;;;;;;5073727;28;20037;-95
2021/05/05 07:54:03;;;;;;;11.40;2.35;;;5.30;99.90;;;;;;5073557;28;20040;-96
2021/05/05 07:56:30;;;;;;;5.30;1.73;;;5.40;99.90;;;;;;5083322;28;20033;-96
2021/05/05 07:59:01;;;;;;;5.25;1.92;;;5.50;99.90;;;;;;5083270;28;20035;-96
2021/05/05 08:01:29;;;;;;;7.65;2.00;;;5.60;99.90;;;;;;5082905;28;20040;-95
2021/05/05 08:04:15;;;;;;;6.07;1.98;;;5.70;99.90;;;;;;5065163;28;20016;-95
2021/05/05 08:06:44;;;;;;;6.28;2.17;;;5.80;99.90;;;;;;5067845;28;20039;-96
2021/05/05 08:11:49;;;;;;;2.70;1.38;;;6.00;99.90;;;;;;5733217;22;20040;-95
2021/05/05 08:14:17;;;;;;;5.15;2.15;;;6.10;99.90;;;;;;5081633;28;20051;-96
2021/05/05 08:16:47;;;;;;;3.80;1.95;;;6.20;99.90;;;;;;5097550;28;20054;-94
2021/05/05 08:19:16;;;;;;;9.95;2.38;;;6.30;99.90;;;;;;5081615;28;20047;-96
2021/05/05 08:21:43;;;;;;;7.10;1.92;;;6.40;99.90;;;;;;5100835;28;20084;-96
2021/05/05 08:24:13;;;;;;;6.57;1.88;;;6.50;99.90;;;;;;5083201;28;20040;-95
2021/05/05 08:26:47;;;;;;;7.70;2.00;;;6.70;99.90;;;;;;5078938;28;20056;-96
2021/05/05 08:29:26;;;;;;;10.38;1.90;;;6.80;99.90;;;;;;5082683;28;20067;-96
2021/05/05 08:31:53;;;;;;;4.82;1.58;;;7.00;99.90;;;;;;5066685;28;20043;-94
2021/05/05 08:34:19;;;;;;;6.10;1.77;;;7.10;99.90;;;;;;5065142;28;20055;-95
2021/05/05 08:36:46;;;;;;;5.60;2.13;;;7.20;99.90;;;;;;5081444;28;20084;-95
2021/05/05 08:39:12;;;;;;;7.20;1.80;;;7.30;99.90;;;;;;5075896;28;20044;-94
2021/05/05 08:41:41;;;;;;;8.70;1.92;;;7.40;99.50;;;;;;5092386;28;20032;-94
2021/05/05 08:44:15;;;;;;;5.70;2.00;;;7.50;98.60;;;;;;5093975;28;20036;-94
2021/05/05 08:46:43;;;;;;;4.88;1.80;;;7.60;97.30;;;;;;5094304;28;20040;-94
2021/05/05 08:49:11;;;;;;;3.40;1.30;;;7.70;96.90;;;;;;5096135;28;20024;-93
2021/05/05 08:51:46;;;;;;;6.35;1.60;;;7.80;96.00;;;;;;5094621;28;20039;-93
2021/05/05 08:54:15;;;;;;;5.15;1.30;;;7.90;95.00;;;;;;5093288;28;20098;-94
2021/05/05 08:56:41;;;;;;;5.35;1.25;;;8.10;94.70;;;;;;5088286;28;20036;-94
2021/05/05 08:59:13;;;;;;;6.18;1.60;;;8.20;94.10;;;;;;5106872;28;20127;-95
2021/05/05 09:01:42;;;;;;;4.60;1.48;;;8.30;93.80;;;;;;5083548;28;20024;-92
2021/05/05 09:04:14;;;;;;;6.63;1.45;;;8.50;93.40;;;;;;5084268;28;20055;-95
2021/05/05 09:06:45;;;;;;;6.40;1.42;;;8.60;92.50;;;;;;5065919;28;20024;-92
2021/05/05 09:09:39;;;;;;;4.40;1.77;;;8.60;91.60;;;;;;5083880;28;20020;-93
2021/05/05 09:12:19;;;;;;;6.10;1.60;;;8.70;91.50;;;;;;5083440;28;20044;-93
2021/05/05 09:14:50;;;;;;;2.33;0.88;;;8.80;91.40;;;;;;5084757;28;20092;-93
2021/05/05 09:17:18;;;;;;;3.88;1.13;;;8.90;89.10;;;;;;5082601;28;20036;-93
2021/05/05 09:19:45;;;;;;;3.17;0.98;;;8.90;87.70;;;;;;5083183;28;20032;-93
2021/05/05 09:22:10;;;;;;;3.42;1.25;;;8.90;86.20;;;;;;5081068;28;20070;-94
2021/05/05 09:24:38;;;;;;;8.68;1.40;;;8.90;86.30;;;;;;5100983;28;20052;-93
2021/05/05 09:27:07;;;;;;;4.43;1.60;;;9.00;86.30;;;;;;5083920;28;20047;-92
2021/05/05 09:29:47;;;;;;;8.30;1.40;;;9.00;84.30;;;;;;5083669;28;20066;-95
2021/05/05 09:32:18;;;;;;;2.25;1.33;;;9.10;84.60;;;;;;5081787;28;20169;-94
2021/05/05 09:34:58;;;;;;;4.20;1.85;;;9.30;84.10;;;;;;5079509;28;20317;-91
2021/05/05 09:37:24;;;;;;;7.43;2.40;;;9.30;83.10;;;;;;5079078;28;20031;-91
2021/05/05 09:40:06;;;;;;;8.73;2.10;;;9.50;83.20;;;;;;5084529;28;20032;-93
2021/05/05 09:42:34;;;;;;;5.68;2.15;;;9.60;82.30;;;;;;5092125;28;20016;-93
2021/05/05 09:45:08;;;;;;;5.97;1.70;;;9.60;81.60;;;;;;5093852;28;20035;-94
2021/05/05 09:47:54;;;;;;;7.47;2.70;;;9.70;81.10;;;;;;5095357;28;20118;-94
2021/05/05 09:50:40;;;;;;;3.13;1.75;;;9.80;81.00;;;;;;5092021;28;20020;-95
2021/05/05 09:53:32;;;;;;;6.32;1.70;;;9.90;81.10;;;;;;5085217;28;20024;-94
2021/05/05 09:56:02;;;;;;;4.95;2.10;;;10.00;80.10;;;;;;5083415;28;20032;-94
2021/05/05 09:58:37;;;;;;;5.70;2.40;;;10.10;78.90;;;;;;5083188;28;20040;-95
2021/05/05 10:01:09;;;;;;;6.00;1.83;;;10.10;78.30;;;;;;5082305;28;20016;-94
2021/05/05 10:03:36;;;;;;;3.03;1.77;;;10.00;77.70;;;;;;5082400;28;20036;-93
2021/05/05 10:06:28;;;;;;;3.67;2.05;;;10.00;78.20;;;;;;5084718;28;20050;-94
2021/05/05 10:08:57;;;;;;;6.03;1.70;;;10.10;79.50;;;;;;5084367;28;20036;-94
2021/05/05 10:11:28;;;;;;;2.47;1.65;;;10.30;78.00;;;;;;5083104;28;20104;-94
2021/05/05 10:13:59;;;;;;;4.85;1.90;;;10.50;77.70;;;;;;5081404;28;20058;-96
2021/05/05 10:16:27;;;;;;;5.03;1.52;;;10.70;78.30;;;;;;5083447;28;20059;-94
2021/05/05 10:18:54;;;;;;;2.67;1.55;;;11.10;77.90;;;;;;5084397;28;20371;-94
2021/05/05 10:21:21;;;;;;;8.80;3.35;;;11.20;75.40;;;;;;5080752;28;20043;-95
2021/05/05 10:23:49;;;;;;;6.35;1.60;;;11.40;75.60;;;;;;5078814;28;20088;-96
2021/05/05 10:26:18;;;;;;;7.47;1.90;;;11.50;75.60;;;;;;5078169;28;20029;-94
2021/05/05 10:28:44;;;;;;;8.88;3.15;;;11.60;74.80;;;;;;5076765;28;20024;-93
2021/05/05 10:31:44;;;;;;;7.95;2.05;;;11.50;75.20;;;;;;5076658;28;20035;-95
2021/05/05 10:34:18;;;;;;;4.45;1.60;;;11.40;75.00;;;;;;5090996;28;20024;-94
2021/05/05 10:36:47;;;;;;;;;;;11.20;74.70;;;;;;5077376;28;20043;-94
2021/05/05 10:39:19;;;;;;;8.90;1.83;;;11.10;73.00;;;;;;5081354;28;19912;-94
2021/05/05 10:42:07;;;;;;;2.95;1.30;;;10.90;73.30;;;;;;5081340;28;20016;-94
2021/05/05 10:44:58;;;;;;;2.97;1.20;;;10.80;72.70;;;;;;5082694;28;20494;-94
2021/05/05 10:47:34;;;;;;;7.65;1.50;;;10.90;73.00;;;;;;5084801;28;20031;-93
2021/05/05 10:50:06;;;;;;;6.20;1.33;;;10.90;73.00;;;;;;5084820;28;20042;-95
2021/05/05 10:52:35;;;;;;;5.85;1.45;;;11.00;72.70;;;;;;5084281;28;20111;-95
2021/05/05 10:55:08;;;;;;;3.05;1.33;;;11.00;71.30;;;;;;5083145;28;20410;-94
2021/05/05 10:57:37;;;;;;;6.25;1.30;;;11.10;71.50;;;;;;5083021;28;20028;-94
2021/05/05 11:00:06;;;;;;;1.92;0.95;;;11.10;71.50;;;;;;5081384;28;20498;-94
2021/05/05 11:03:08;;;;;;;2.83;0.93;;;11.30;71.30;;;;;;5109766;28;20024;-93
2021/05/05 11:05:48;;;;;;;1.73;0.90;;;11.30;69.50;;;;;;5109238;28;20044;-93
2021/05/05 11:08:34;;;;;;;2.90;0.98;;;11.20;67.80;;;;;;5083304;28;20266;-94
2021/05/05 11:11:03;;;;;;;2.47;0.80;;;11.10;67.00;;;;;;5079970;28;20031;-94
2021/05/05 11:13:30;;;;;;;4.18;0.93;;;11.10;66.60;;;;;;5091860;28;20061;-94
2021/05/05 11:15:57;;;;;;;1.13;0.85;;;11.10;67.50;;;;;;5081276;28;20032;-94
2021/05/05 11:20:59;;;;;;;3.58;0.90;;;11.20;66.80;;;;;;5095710;28;20032;-94
2021/05/05 11:23:52;;;;;;;2.47;0.90;;;11.40;66.70;;;;;;5080145;28;20042;-95
2021/05/05 11:26:44;;;;;;;6.00;1.02;;;11.60;65.60;;;;;;5086567;28;20062;-93
2021/05/05 11:29:11;;;;;;;2.90;0.98;;;11.90;64.30;;;;;;5089987;28;20035;-95
2021/05/05 11:31:49;;;;;;;4.45;1.45;;;12.20;64.40;;;;;;5091482;28;20020;-95
2021/05/05 11:34:24;;;;;;;5.20;1.40;;;12.40;65.60;;;;;;5091729;28;20059;-92
2021/05/05 11:36:59;;;;;;;2.63;0.95;;;12.50;69.30;;;;;;5083785;28;20020;-91
2021/05/05 11:39:29;;;;;;;6.78;1.60;;;12.70;71.70;;;;;;5081430;28;20131;-94
2021/05/05 11:41:59;;;;;;;5.55;1.40;;;12.70;71.70;;;;;;5076514;28;20479;-91
2021/05/05 11:44:37;;;;;;;7.88;1.08;;;12.50;71.90;;;;;;5079413;28;20032;-92
2021/05/05 11:47:11;;;;;;;4.85;1.38;;;12.40;72.10;;;;;;5078818;28;20024;-92
2021/05/05 11:49:41;;;;;;;4.35;1.20;;;12.50;72.10;;;;;;5079113;28;20020;-92
2021/05/05 11:52:39;;;;;;;3.85;1.38;;;12.50;73.00;;;;;;5078594;28;20034;-92
2021/05/05 11:55:11;;;;;;;2.90;1.20;;;12.50;73.00;;;;;;5079266;28;20016;-91
2021/05/05 11:57:49;;;;;;;4.18;1.25;;;12.40;72.10;;;;;;5078864;28;20032;-93
2021/05/05 12:00:28;;;;;;;5.07;1.23;;;12.30;71.10;;;;;;5079068;28;20024;-90
2021/05/05 12:02:55;;;;;;;1.13;1.02;;;12.40;71.30;;;;;;5097454;28;20024;-93
2021/05/05 12:05:36;;;;;;;2.88;1.00;;;12.60;71.30;;;;;;5079454;28;20052;-93
2021/05/05 12:08:05;;;;;;;6.27;1.40;;;12.70;70.80;;;;;;5079333;28;20024;-92
2021/05/05 12:11:00;;;;;;;6.38;1.20;;;12.80;69.90;;;;;;5079367;28;20266;-93
2021/05/05 12:13:39;;;;;;;10.60;1.67;;;12.90;68.00;;;;;;5074221;28;20657;-93
2021/05/05 12:16:17;;;;;;;3.15;1.20;;;12.90;66.90;;;;;;5058737;28;20020;-94
2021/05/05 12:18:45;;;;;;;3.00;1.40;;;12.90;66.10;;;;;;5059387;28;20143;-92
2021/05/05 12:21:15;;;;;;;1.90;1.17;;;13.00;66.40;;;;;;5059060;28;20024;-93
2021/05/05 12:23:47;;;;;;;2.03;1.25;;;13.40;66.30;;;;;;5059655;28;20103;-93
2021/05/05 12:26:18;;;;;;;2.95;1.02;;;13.50;65.50;;;;;;5059002;28;20096;-94
2021/05/05 12:28:44;;;;;;;;;;;13.50;64.20;;;;;;5059175;28;20082;-93
2021/05/05 12:31:18;;;;;;;4.10;1.30;;;13.20;63.70;;;;;;5058165;28;19912;-92
2021/05/05 12:33:46;;;;;;;2.45;1.20;;;12.90;65.00;;;;;;5061753;28;20039;-91
2021/05/05 12:36:23;;;;;;;4.53;1.63;;;12.50;66.30;;;;;;5078502;28;20044;-92
2021/05/05 12:38:55;;;;;;;2.97;1.40;;;12.10;68.60;;;;;;5079096;28;20071;-92
2021/05/05 12:41:25;;;;;;;4.35;1.55;;;11.70;70.70;;;;;;5078326;28;20113;-92
2021/05/05 12:43:56;;;;;;;5.57;1.50;;;11.50;72.20;;;;;;5078792;28;20428;-91
2021/05/05 12:46:34;;;;;;;5.18;1.48;;;11.50;73.20;;;;;;5079089;28;20165;-92
2021/05/05 12:49:02;;;;;;;7.53;1.77;;;11.40;73.60;;;;;;5096224;28;20032;-92
2021/05/05 12:51:36;;;;;;;4.13;1.75;;;11.30;74.50;;;;;;5078103;28;20111;-93
2021/05/05 12:54:03;;;;;;;2.40;1.10;;;11.10;74.70;;;;;;5077093;28;20047;-94
2021/05/05 12:56:43;;;;;;;7.35;1.77;;;11.00;75.30;;;;;;5065106;28;20073;-94
2021/05/05 12:59:14;;;;;;;1.52;1.00;;;10.80;74.50;;;;;;5069440;28;20486;-93
2021/05/05 13:01:40;;;;;;;1.63;1.10;;;10.60;75.00;;;;;;5059499;28;20082;-93
2021/05/05 13:04:06;;;;;;;1.13;1.02;;;10.40;76.20;;;;;;5068699;28;20042;-92
2021/05/05 13:06:44;;;;;;;4.93;1.30;;;10.20;77.20;;;;;;5078443;28;20490;-93
2021/05/05 13:09:18;;;;;;;5.68;2.03;;;10.00;78.60;;;;;;5096971;28;20050;-94
2021/05/05 13:11:48;;;;;;;5.32;1.60;;;9.90;79.80;;;;;;5079369;28;20098;-94
2021/05/05 13:14:28;;;;;;;7.78;1.48;;;9.80;80.90;;;;;;5076464;28;20055;-93
2021/05/05 13:31:50;;;;;;;1.75;1.15;;;9.00;85.40;;;;;;5815306;22;20052;-94
2021/05/05 13:34:18;;;;;;;4.55;2.13;;;9.00;86.00;;;;;;5058512;28;20553;-94
2021/05/05 13:36:59;;;;;;;4.90;1.42;;;9.30;86.80;;;;;;5084247;28;20059;-93
2021/05/05 13:39:39;;;;;;;4.68;1.40;;;9.70;86.80;;;;;;5071481;28;20044;-94
2021/05/05 13:42:11;;;;;;;4.20;1.60;;;10.10;86.10;;;;;;5077516;28;20029;-95
2021/05/05 13:44:55;;;;;;;6.13;1.63;;;10.40;85.30;;;;;;5065030;28;20028;-96
2021/05/05 13:47:24;;;;;;;3.85;1.15;;;10.90;84.90;;;;;;5070159;28;20021;-95
2021/05/05 13:50:01;;;;;;;6.13;1.55;;;11.30;82.00;;;;;;5073857;28;20051;-94
2021/05/05 13:52:29;;;;;;;5.38;1.20;;;11.60;80.00;;;;;;5091971;28;20036;-95
2021/05/05 13:54:57;;;;;;;3.10;1.40;;;11.80;78.10;;;;;;5072300;28;20096;-94
2021/05/05 13:57:23;;;;;;;3.38;1.40;;;12.10;76.80;;;;;;5070412;28;20020;-95
2021/05/05 13:59:54;;;;;;;3.15;1.15;;;12.40;76.70;;;;;;5069285;28;20104;-95
2021/05/05 14:02:20;;;;;;;3.65;1.33;;;12.80;76.10;;;;;;5066452;28;20051;-95
2021/05/05 14:08:08;;;;;;;3.22;1.17;;;13.60;71.70;;;;;;5096595;22;20163;-95
2021/05/05 14:10:43;;;;;;;4.70;1.15;;;13.80;69.80;;;;;;5073035;28;20036;-95
2021/05/05 14:13:09;;;;;;;4.25;1.30;;;14.00;69.30;;;;;;5071242;28;20033;-95
2021/05/05 14:15:38;;;;;;;4.43;1.20;;;14.00;67.90;;;;;;5085259;28;20147;-95
2021/05/05 14:18:08;;;;;;;3.35;1.20;;;14.00;67.20;;;;;;5079748;28;20019;-94
2021/05/05 14:20:35;;;;;;;;;;;14.00;65.80;;;;;;5094597;28;20036;-95
2021/05/05 14:23:10;;;;;;;4.80;1.40;;;14.00;65.80;;;;;;5094210;28;19923;-94
2021/05/05 14:25:44;;;;;;;1.45;1.00;;;14.10;66.00;;;;;;5091382;28;20043;-95
2021/05/05 14:28:41;;;;;;;3.88;1.40;;;14.20;65.60;;;;;;5109811;28;20064;-94
2021/05/05 14:31:12;;;;;;;3.03;1.05;;;14.40;65.50;;;;;;5092149;28;20028;-95
2021/05/05 14:33:42;;;;;;;2.97;1.17;;;14.30;64.50;;;;;;5093414;28;20043;-95
2021/05/05 14:36:15;;;;;;;2.58;0.98;;;14.30;64.70;;;;;;5091227;28;20032;-95
2021/05/05 14:38:43;;;;;;;3.88;1.00;;;14.10;64.40;;;;;;5083778;28;20502;-95
2021/05/05 14:41:17;;;;;;;2.80;1.17;;;14.00;63.40;;;;;;5054570;28;20050;-94
2021/05/05 14:44:08;;;;;;;3.03;1.13;;;13.90;63.90;;;;;;5042506;28;20093;-96
2021/05/05 14:49:09;;;;;;;1.38;0.57;;;13.60;62.00;;;;;;5057061;28;20049;-94
2021/05/05 14:51:36;;;;;;;2.58;1.00;;;13.70;62.10;;;;;;5038958;28;20028;-95
2021/05/05 14:54:03;;;;;;;3.63;1.10;;;13.80;62.10;;;;;;5037987;28;20483;-95
2021/05/05 14:56:28;;;;;;;3.88;1.10;;;13.90;62.20;;;;;;5042835;28;20279;-95
2021/05/05 14:58:59;;;;;;;3.33;1.10;;;13.90;61.40;;;;;;5049670;28;20032;-94
2021/05/05 15:01:25;;;;;;;1.65;0.85;;;13.80;61.20;;;;;;5050811;28;20025;-95
2021/05/05 15:03:53;;;;;;;3.10;1.40;;;13.70;61.50;;;;;;5042800;28;20040;-95
2021/05/05 15:06:32;;;;;;;5.30;1.27;;;13.70;61.90;;;;;;5028035;28;20029;-95
2021/05/05 15:17:44;;;;;;;2.53;0.98;;;13.70;59.50;;;;;;5064068;28;20494;-96
2021/05/05 15:36:09;;;;;;;6.97;1.30;;;11.40;69.80;;;;;;5066945;28;20029;-94
2021/05/05 15:38:44;;;;;;;1.95;1.10;;;11.50;70.90;;;;;;5048694;28;20032;-95
2021/05/05 15:41:25;;;;;;;2.88;1.10;;;11.80;71.00;;;;;;5047743;28;20032;-95
2021/05/05 15:44:17;;;;;;;3.97;0.93;;;12.20;71.10;;;;;;5041047;28;20120;-95
2021/05/05 15:47:02;;;;;;;4.32;1.17;;;12.50;70.60;;;;;;5046381;28;20037;-94
2021/05/05 15:49:30;;;;;;;4.25;1.17;;;12.70;69.10;;;;;;5037798;28;20048;-95
2021/05/05 15:51:56;;;;;;;1.70;1.05;;;12.70;67.80;;;;;;5050742;28;20091;-95
2021/05/05 15:54:23;;;;;;;4.07;1.33;;;12.70;67.10;;;;;;5046399;28;20025;-93
2021/05/05 15:56:49;;;;;;;6.60;1.02;;;12.60;67.50;;;;;;5030668;28;20090;-93
2021/05/05 15:59:25;;;;;;;3.85;1.10;;;12.30;67.20;;;;;;5044618;28;20055;-93
2021/05/05 16:13:05;;;;;;;4.95;1.30;;;12.10;69.30;;;;;;5068861;28;20027;-94
2021/05/05 16:15:37;;;;;;;2.80;1.00;;;12.20;69.00;;;;;;5066527;28;20025;-93
2021/05/05 16:18:06;;;;;;;2.70;1.15;;;12.30;68.70;;;;;;5037135;28;20029;-93
2021/05/05 16:20:36;;;;;;;5.07;1.33;;;12.40;68.20;;;;;;5036447;28;20048;-94
2021/05/05 16:54:55;;;;;;;1.50;1.00;;;12.80;57.10;;;;;;5085407;28;20077;-95
2021/05/05 16:57:43;;;;;;;3.35;0.55;;;12.70;56.80;;;;;;5074278;28;20798;-91
2021/05/05 17:10:26;;;;;;;2.35;0.80;;;12.50;56.80;;;;;;5065758;28;20049;-91
2021/05/05 17:12:52;;;;;;;3.95;1.23;;;12.40;55.90;;;;;;5051682;28;20468;-90
2021/05/05 17:18:25;;;;;;;2.25;0.90;;;12.10;55.70;;;;;;5069548;28;20028;-91
2021/05/05 17:20:56;;;;;;;3.05;1.15;;;12.00;56.30;;;;;;5047152;28;20075;-89
2021/05/05 17:47:28;;;;;;;5.65;0.73;;;11.50;56.20;;;;;;5070457;28;20031;-92
2021/05/05 17:59:52;;;;;;;3.97;0.63;;;11.20;57.50;;;;;;5063249;28;20074;-90
2021/05/05 18:19:09;;;;;;;7.85;0.90;;;10.60;61.80;;;;;;5062413;28;20027;-90
2021/05/05 18:24:24;;;;;;;3.60;1.48;;;10.40;62.90;;;;;;5062297;28;20510;-90
2021/05/05 18:29:28;;;;;;;3.45;0.93;;;10.10;63.60;;;;;;5065098;28;20044;-89
2021/05/05 18:31:53;;;;;;;1.98;0.80;;;10.00;63.80;;;;;;5063608;28;20024;-89
2021/05/05 18:34:19;;;;;;;5.32;0.93;;;9.80;63.90;;;;;;5045297;28;20395;-89